createdAt,value
2018-05-06T00:00:53.699Z,72.36
2018-05-06T00:03:22.038Z,72.38
2018-05-06T00:05:50.408Z,72.50
2018-05-06T00:08:20.266Z,73.11
2018-05-06T00:10:48.606Z,72.71
2018-05-06T00:13:16.969Z,72.69
2018-05-06T00:15:46.077Z,72.62
2018-05-06T00:18:15.207Z,72.84
2018-05-06T00:20:43.531Z,73.30
2018-05-06T00:23:11.854Z,73.78
2018-05-06T00:25:40.212Z,74.08
2018-05-06T00:28:08.558Z,73.84
2018-05-06T00:30:36.892Z,73.87
2018-05-06T00:33:05.234Z,73.62
2018-05-06T00:35:34.371Z,73.63
2018-05-06T00:38:03.123Z,73.22
2018-05-06T00:40:31.876Z,72.60
2018-05-06T00:43:00.222Z,72.72
2018-05-06T00:45:28.572Z,72.83
2018-05-06T00:47:56.899Z,73.17
2018-05-06T00:50:25.271Z,73.16
2018-05-06T00:52:53.610Z,73.81
2018-05-06T00:55:21.919Z,73.35
2018-05-06T00:57:50.277Z,72.60
2018-05-06T01:00:18.639Z,72.38
2018-05-06T01:02:46.967Z,72.24
2018-05-06T01:05:15.306Z,71.80
2018-05-06T01:07:43.657Z,71.93
2018-05-06T01:10:12.041Z,72.19
2018-05-06T01:12:40.759Z,72.30
2018-05-06T01:15:09.123Z,72.30
2018-05-06T01:17:37.484Z,72.08
2018-05-06T01:20:05.811Z,71.98
2018-05-06T01:22:34.163Z,71.68
2018-05-06T01:25:03.201Z,71.88
2018-05-06T01:27:31.550Z,72.31
2018-05-06T01:29:59.876Z,72.04
2018-05-06T01:32:28.994Z,72.28
2018-05-06T01:34:57.314Z,72.94
2018-05-06T01:37:25.653Z,72.85
2018-05-06T01:39:53.949Z,73.21
2018-05-06T01:42:22.303Z,73.47
2018-05-06T01:44:50.680Z,73.12
2018-05-06T01:47:19.001Z,72.69
2018-05-06T01:49:47.339Z,72.75
2018-05-06T01:52:15.671Z,72.86
2018-05-06T01:54:44.011Z,73.20
2018-05-06T01:57:12.340Z,73.53
2018-05-06T01:59:42.207Z,73.59
2018-05-06T02:02:10.551Z,74.03
2018-05-06T02:04:38.914Z,74.09
2018-05-06T02:07:08.635Z,73.75
2018-05-06T02:09:36.957Z,73.98
2018-05-06T02:12:05.335Z,74.27
2018-05-06T02:14:33.669Z,74.54
2018-05-06T02:17:01.991Z,74.73
2018-05-06T02:19:30.301Z,75.09
2018-05-06T02:21:59.393Z,75.50
2018-05-06T02:24:28.731Z,75.71
2018-05-06T02:26:57.034Z,75.99
2018-05-06T02:29:25.379Z,76.25
2018-05-06T02:31:54.123Z,76.41
2018-05-06T02:34:23.673Z,76.97
2018-05-06T02:36:51.970Z,77.19
2018-05-06T02:39:20.427Z,77.78
2018-05-06T02:41:50.448Z,77.75
2018-05-06T02:44:18.823Z,77.95
2018-05-06T02:46:47.622Z,78.41
2018-05-06T02:49:16.225Z,78.42
2018-05-06T02:51:44.583Z,78.85
2018-05-06T02:54:13.243Z,78.83
2018-05-06T02:56:42.467Z,78.80
2018-05-06T02:59:11.100Z,78.93
2018-05-06T03:01:39.545Z,79.13
2018-05-06T03:04:08.958Z,79.36
2018-05-06T03:06:37.326Z,79.66
2018-05-06T03:09:06.448Z,79.47
2018-05-06T03:11:34.885Z,79.32
2018-05-06T03:14:03.335Z,79.46
2018-05-06T03:16:32.793Z,79.39
2018-05-06T03:19:01.155Z,79.24
2018-05-06T03:21:29.823Z,78.76
2018-05-06T03:23:58.173Z,78.46
2018-05-06T03:26:27.295Z,78.49
2018-05-06T03:28:57.066Z,78.31
2018-05-06T03:31:25.535Z,78.23
2018-05-06T03:33:54.115Z,78.37
2018-05-06T03:36:22.441Z,78.49
2018-05-06T03:38:50.802Z,78.84
2018-05-06T03:41:19.910Z,79.00
2018-05-06T03:43:48.243Z,78.57
2018-05-06T03:46:16.583Z,78.22
2018-05-06T03:48:44.915Z,78.13
2018-05-06T03:51:13.277Z,77.98
2018-05-06T03:53:41.587Z,77.67
2018-05-06T03:59:54.179Z,77.87
2018-05-06T04:02:40.814Z,78.05
2018-05-06T04:05:09.917Z,77.65
2018-05-06T04:07:38.259Z,77.14
2018-05-06T04:10:06.576Z,77.00
2018-05-06T04:12:35.684Z,77.08
2018-05-06T04:15:04.002Z,76.67
2018-05-06T04:17:32.354Z,76.43
2018-05-06T04:20:00.659Z,76.17
2018-05-06T04:22:28.999Z,76.23
2018-05-06T04:24:57.346Z,76.32
2018-05-06T04:27:26.080Z,76.25
2018-05-06T04:29:54.405Z,76.23
2018-05-06T04:32:23.530Z,76.38
2018-05-06T04:34:51.849Z,76.27
2018-05-06T04:37:20.197Z,76.30
2018-05-06T04:39:48.562Z,76.17
2018-05-06T04:42:16.880Z,75.42
2018-05-06T04:44:45.260Z,74.10
2018-05-06T04:47:13.615Z,73.54
2018-05-06T04:49:41.956Z,73.31
2018-05-06T04:52:11.602Z,73.38
2018-05-06T04:54:39.976Z,71.94
2018-05-06T04:57:08.740Z,70.35
2018-05-06T04:59:37.107Z,68.27
2018-05-06T05:02:06.186Z,67.69
2018-05-06T05:04:34.540Z,67.53
2018-05-06T05:07:02.906Z,66.83
2018-05-06T05:09:31.291Z,65.97
2018-05-06T05:12:06.534Z,64.61
2018-05-06T05:14:35.011Z,63.77
2018-05-06T05:17:03.317Z,64.36
2018-05-06T05:19:31.898Z,64.58
2018-05-06T05:22:00.218Z,64.13
2018-05-06T05:24:28.566Z,62.47
2018-05-06T05:26:57.661Z,62.23
2018-05-06T05:29:26.066Z,61.59
2018-05-06T05:31:54.381Z,62.08
2018-05-06T05:34:22.802Z,62.62
2018-05-06T05:36:51.092Z,62.57
2018-05-06T05:39:19.418Z,60.79
2018-05-06T05:41:47.740Z,61.27
2018-05-06T05:44:16.080Z,61.43
2018-05-06T05:46:44.425Z,60.85
2018-05-06T05:49:13.750Z,60.41
2018-05-06T05:51:42.373Z,60.67
2018-05-06T05:54:11.506Z,59.55
2018-05-06T05:56:39.852Z,58.88
2018-05-06T05:59:08.199Z,58.94
2018-05-06T06:01:37.307Z,59.71
2018-05-06T06:04:06.034Z,58.48
2018-05-06T06:06:35.595Z,58.12
2018-05-06T06:09:05.562Z,58.74
2018-05-06T06:11:33.909Z,58.94
2018-05-06T06:14:02.254Z,57.43
2018-05-06T06:16:33.415Z,57.93
2018-05-06T06:19:02.630Z,57.30
2018-05-06T06:21:31.042Z,57.14
2018-05-06T06:23:59.418Z,57.19
2018-05-06T06:26:27.838Z,56.36
2018-05-06T06:28:56.984Z,56.86
2018-05-06T06:31:25.333Z,55.78
2018-05-06T06:33:54.470Z,55.91
2018-05-06T06:36:22.850Z,55.88
2018-05-06T06:38:51.206Z,56.39
2018-05-06T06:41:19.590Z,55.67
2018-05-06T06:43:48.861Z,55.57
2018-05-06T06:46:17.208Z,55.51
2018-05-06T06:48:46.369Z,54.62
2018-05-06T06:51:14.695Z,55.04
2018-05-06T06:53:43.841Z,54.11
2018-05-06T06:56:12.213Z,54.17
2018-05-06T06:58:40.532Z,54.13
2018-05-06T07:01:08.926Z,54.46
2018-05-06T07:03:38.035Z,52.65
2018-05-06T07:06:07.541Z,53.45
2018-05-06T07:08:36.668Z,52.28
2018-05-06T07:11:05.087Z,52.81
2018-05-06T07:13:34.982Z,52.21
2018-05-06T07:16:04.897Z,52.51
2018-05-06T07:18:33.269Z,51.31
2018-05-06T07:21:01.598Z,51.46
2018-05-06T07:23:30.733Z,50.99
2018-05-06T07:25:59.543Z,50.56
2018-05-06T07:28:27.877Z,50.39
2018-05-06T07:30:56.217Z,49.83
2018-05-06T07:33:25.446Z,49.36
2018-05-06T07:35:54.843Z,49.48
2018-05-06T07:38:23.595Z,48.77
2018-05-06T07:40:51.906Z,49.08
2018-05-06T07:43:20.987Z,49.42
2018-05-06T07:45:50.142Z,49.33
2018-05-06T07:48:18.442Z,48.07
2018-05-06T07:50:46.893Z,46.95
2018-05-06T07:53:15.205Z,47.27
2018-05-06T07:55:43.586Z,46.19
2018-05-06T07:58:12.699Z,46.16
2018-05-06T08:00:41.054Z,45.65
2018-05-06T08:03:09.402Z,46.50
2018-05-06T08:05:37.751Z,46.76
2018-05-06T08:08:06.055Z,45.76
2018-05-06T08:10:34.431Z,45.39
2018-05-06T08:13:02.812Z,45.38
2018-05-06T08:15:31.536Z,45.13
2018-05-06T08:18:00.704Z,44.72
2018-05-06T08:20:29.028Z,44.53
2018-05-06T08:22:57.405Z,44.16
2018-05-06T08:25:25.723Z,44.37
2018-05-06T08:27:54.065Z,44.62
2018-05-06T08:30:23.545Z,44.61
2018-05-06T08:32:51.927Z,44.48
2018-05-06T08:35:21.103Z,45.09
2018-05-06T08:37:49.448Z,44.51
2018-05-06T08:40:17.795Z,43.92
2018-05-06T08:42:46.141Z,44.55
2018-05-06T08:45:14.474Z,43.68
2018-05-06T08:47:42.866Z,44.04
2018-05-06T08:50:11.208Z,43.95
2018-05-06T08:52:39.584Z,43.25
2018-05-06T08:55:08.661Z,43.23
2018-05-06T08:57:37.809Z,43.44
2018-05-06T09:00:06.156Z,42.53
2018-05-06T09:02:34.545Z,43.03
2018-05-06T09:05:02.937Z,42.82
2018-05-06T09:07:31.297Z,43.09
2018-05-06T09:09:59.635Z,43.18
2018-05-06T09:12:27.981Z,42.88
2018-05-06T09:14:56.324Z,42.58
2018-05-06T09:17:24.696Z,43.13
2018-05-06T09:19:53.068Z,42.38
2018-05-06T09:22:22.200Z,43.06
2018-05-06T09:24:50.557Z,42.50
2018-05-06T09:27:18.868Z,43.01
2018-05-06T09:29:47.240Z,43.50
2018-05-06T09:32:16.400Z,43.09
2018-05-06T09:34:44.686Z,43.58
2018-05-06T09:37:13.020Z,44.22
2018-05-06T09:39:41.390Z,42.44
2018-05-06T09:42:09.703Z,42.88
2018-05-06T09:44:38.842Z,42.68
2018-05-06T09:47:07.154Z,42.67
2018-05-06T09:49:35.527Z,42.82
2018-05-06T09:52:03.887Z,42.81
2018-05-06T09:54:32.232Z,42.56
2018-05-06T09:57:00.558Z,42.54
2018-05-06T09:59:28.919Z,42.26
2018-05-06T10:01:57.297Z,41.57
2018-05-06T10:04:25.619Z,41.36
2018-05-06T10:06:54.778Z,40.86
2018-05-06T10:09:23.136Z,40.61
2018-05-06T10:11:51.586Z,40.44
2018-05-06T10:14:20.296Z,40.38
2018-05-06T10:16:48.632Z,40.73
2018-05-06T10:19:17.808Z,39.81
2018-05-06T10:21:46.136Z,40.07
2018-05-06T10:24:14.496Z,40.03
2018-05-06T10:26:42.878Z,39.62
2018-05-06T10:29:11.203Z,39.14
2018-05-06T10:31:39.563Z,39.46
2018-05-06T10:34:07.880Z,39.18
2018-05-06T10:36:36.236Z,39.50
2018-05-06T10:39:04.644Z,39.04
2018-05-06T10:41:33.738Z,39.44
2018-05-06T10:44:02.940Z,38.98
2018-05-06T10:46:31.240Z,38.80
2018-05-06T10:48:59.617Z,38.49
2018-05-06T10:51:27.975Z,38.35
2018-05-06T10:53:57.185Z,38.43
2018-05-06T10:56:28.776Z,38.77
2018-05-06T10:58:58.197Z,38.41
2018-05-06T11:01:27.251Z,38.73
2018-05-06T11:03:55.662Z,38.30
2018-05-06T11:06:24.846Z,38.02
2018-05-06T11:08:53.980Z,38.44
2018-05-06T11:11:23.123Z,38.28
2018-05-06T11:13:52.067Z,38.13
2018-05-06T11:16:20.728Z,37.47
2018-05-06T11:18:49.503Z,37.76
2018-05-06T11:21:18.161Z,37.81
2018-05-06T11:23:46.824Z,38.36
2018-05-06T11:26:15.974Z,37.85
2018-05-06T11:28:44.285Z,37.38
2018-05-06T11:31:12.927Z,38.64
2018-05-06T11:33:41.324Z,38.24
2018-05-06T11:36:09.869Z,38.19
2018-05-06T11:38:38.210Z,37.79
2018-05-06T11:41:08.814Z,37.61
2018-05-06T11:43:37.179Z,36.98
2018-05-06T11:46:05.540Z,37.21
2018-05-06T11:48:34.772Z,37.67
2018-05-06T11:51:03.395Z,37.14
2018-05-06T11:53:32.201Z,37.16
2018-05-06T11:56:00.651Z,37.74
2018-05-06T11:58:29.463Z,37.69
2018-05-06T12:00:58.375Z,36.76
2018-05-06T12:03:26.852Z,37.47
2018-05-06T12:05:55.413Z,37.14
2018-05-06T12:08:23.729Z,36.80
2018-05-06T12:10:52.625Z,36.78
2018-05-06T12:13:22.878Z,37.53
2018-05-06T12:15:51.655Z,36.95
2018-05-06T12:18:21.661Z,37.23
2018-05-06T12:20:51.410Z,36.63
2018-05-06T12:23:19.834Z,36.53
2018-05-06T12:25:48.209Z,35.88
2018-05-06T12:28:16.556Z,36.08
2018-05-06T12:30:44.951Z,35.99
2018-05-06T12:33:13.271Z,36.86
2018-05-06T12:35:41.760Z,36.09
2018-05-06T12:38:10.869Z,35.94
2018-05-06T12:40:39.987Z,35.97
2018-05-06T12:43:08.340Z,36.12
2018-05-06T12:45:37.599Z,34.82
2018-05-06T12:48:05.976Z,34.54
2018-05-06T12:50:34.347Z,35.33
2018-05-06T12:53:02.695Z,35.90
2018-05-06T12:55:31.042Z,33.99
2018-05-06T12:57:59.364Z,34.75
2018-05-06T13:00:27.735Z,34.36
2018-05-06T13:02:56.079Z,34.44
2018-05-06T13:05:25.202Z,34.56
2018-05-06T13:07:53.578Z,34.52
2018-05-06T13:10:21.904Z,34.63
2018-05-06T13:12:50.270Z,34.50
2018-05-06T13:15:18.588Z,33.92
2018-05-06T13:17:46.938Z,32.72
2018-05-06T13:20:15.303Z,32.47
2018-05-06T13:22:43.618Z,32.53
2018-05-06T13:25:12.752Z,32.93
2018-05-06T13:27:41.058Z,32.19
2018-05-06T13:30:09.417Z,31.38
2018-05-06T13:32:37.722Z,32.27
2018-05-06T13:35:06.846Z,32.20
2018-05-06T13:37:35.978Z,31.96
2018-05-06T13:40:04.373Z,32.21
2018-05-06T13:42:32.722Z,32.61
2018-05-06T13:45:01.047Z,32.59
2018-05-06T13:47:29.384Z,32.58
2018-05-06T13:49:57.980Z,32.15
2018-05-06T13:52:26.182Z,31.25
2018-05-06T13:54:54.746Z,30.93
2018-05-06T13:57:23.364Z,31.58
2018-05-06T13:59:51.716Z,32.44
2018-05-06T14:04:47.784Z,31.80
2018-05-06T14:07:16.195Z,31.46
2018-05-06T14:09:44.536Z,32.13
2018-05-06T14:12:13.760Z,31.25
2018-05-06T14:14:42.446Z,31.40
2018-05-06T14:17:10.804Z,31.79
2018-05-06T14:19:40.137Z,31.63
2018-05-06T14:22:08.500Z,31.74
2018-05-06T14:24:37.192Z,31.65
2018-05-06T14:27:05.927Z,32.59
2018-05-06T14:29:34.535Z,32.45
2018-05-06T14:32:03.033Z,32.29
2018-05-06T14:34:32.117Z,31.02
2018-05-06T14:37:01.254Z,31.30
2018-05-06T14:39:29.655Z,31.21
2018-05-06T14:41:58.795Z,31.81
2018-05-06T14:44:27.894Z,31.18
2018-05-06T14:47:14.803Z,31.87
2018-05-06T14:49:43.905Z,30.39
2018-05-06T14:52:12.265Z,30.71
2018-05-06T14:54:41.397Z,29.77
2018-05-06T14:57:09.740Z,30.47
2018-05-06T14:59:38.873Z,30.11
2018-05-06T15:02:07.207Z,30.19
2018-05-06T15:04:36.343Z,30.84
2018-05-06T15:07:04.667Z,31.05
2018-05-06T15:09:32.990Z,29.98
2018-05-06T15:12:01.341Z,30.19
2018-05-06T15:14:37.278Z,30.21
2018-05-06T15:17:05.624Z,29.63
2018-05-06T15:19:33.940Z,30.68
2018-05-06T15:22:03.320Z,30.91
2018-05-06T15:24:32.283Z,30.77
2018-05-06T15:27:02.710Z,30.59
2018-05-06T15:32:05.977Z,31.54
2018-05-06T15:34:34.393Z,34.08
2018-05-06T15:37:11.667Z,30.88
2018-05-06T15:39:40.241Z,30.48
2018-05-06T15:42:08.816Z,31.79
2018-05-06T15:44:38.021Z,29.94
2018-05-06T15:47:06.629Z,32.55
2018-05-06T15:49:35.181Z,34.80
2018-05-06T15:52:04.910Z,33.93
2018-05-06T15:54:33.415Z,31.66
2018-05-06T15:57:02.282Z,30.33
2018-05-06T15:59:30.776Z,31.07
2018-05-06T16:04:59.831Z,31.35
2018-05-06T16:07:29.501Z,32.04
2018-05-06T16:09:57.945Z,32.17
2018-05-06T16:12:27.340Z,30.84
2018-05-06T16:14:56.720Z,32.47
2018-05-06T16:17:25.056Z,32.26
2018-05-06T16:19:53.585Z,31.02
2018-05-06T16:22:23.038Z,31.34
2018-05-06T16:24:52.283Z,31.24
2018-05-06T16:27:20.763Z,31.15
2018-05-06T16:29:49.108Z,31.70
2018-05-06T16:32:17.553Z,31.11
2018-05-06T16:34:46.825Z,30.34
2018-05-06T16:37:15.209Z,29.90
2018-05-06T16:39:44.429Z,29.75
2018-05-06T16:42:13.218Z,30.29
2018-05-06T16:44:42.549Z,30.42
2018-05-06T16:47:13.244Z,30.56
2018-05-06T16:49:47.865Z,30.63
2018-05-06T16:52:18.650Z,31.09
2018-05-06T16:54:47.020Z,31.17
2018-05-06T16:57:15.760Z,30.83
2018-05-06T16:59:44.528Z,31.29
2018-05-06T17:02:13.968Z,31.49
2018-05-06T17:04:42.784Z,31.65
2018-05-06T17:07:11.570Z,32.09
2018-05-06T17:09:40.245Z,32.26
2018-05-06T17:12:08.680Z,31.86
2018-05-06T17:14:37.120Z,31.71
2018-05-06T17:17:05.512Z,32.09
2018-05-06T17:19:42.551Z,31.77
2018-05-06T17:22:11.342Z,31.71
2018-05-06T17:24:39.655Z,31.80
2018-05-06T17:27:08.988Z,32.26
2018-05-06T17:29:38.132Z,32.11
2018-05-06T17:32:06.554Z,32.31
2018-05-06T17:34:34.949Z,32.68
2018-05-06T17:37:04.041Z,32.39
2018-05-06T17:39:33.201Z,32.21
2018-05-06T17:42:01.766Z,32.42
2018-05-06T17:44:31.072Z,32.72
2018-05-06T17:47:00.179Z,32.42
2018-05-06T17:49:28.552Z,32.84
2018-05-06T17:51:57.745Z,32.66
2018-05-06T17:54:26.097Z,32.61
2018-05-06T17:56:54.515Z,32.97
2018-05-06T17:59:22.837Z,33.36
2018-05-06T18:01:54.232Z,33.86
2018-05-06T18:04:22.575Z,34.40
2018-05-06T18:06:50.988Z,34.93
2018-05-06T18:09:19.333Z,35.20
2018-05-06T18:11:48.566Z,35.57
2018-05-06T18:14:18.236Z,36.01
2018-05-06T18:16:46.648Z,36.61
2018-05-06T18:19:15.269Z,37.30
2018-05-06T18:21:43.732Z,37.75
2018-05-06T18:24:12.058Z,37.87
2018-05-06T18:26:40.808Z,39.03
2018-05-06T18:29:10.155Z,39.35
2018-05-06T18:31:38.481Z,39.69
2018-05-06T18:34:06.915Z,40.26
2018-05-06T18:36:35.253Z,40.27
2018-05-06T18:39:05.228Z,41.25
2018-05-06T18:41:33.748Z,41.20
2018-05-06T18:44:02.903Z,42.17
2018-05-06T18:46:32.043Z,42.18
2018-05-06T18:49:01.186Z,42.47
2018-05-06T18:51:30.628Z,43.74
2018-05-06T18:54:00.587Z,43.53
2018-05-06T18:56:30.198Z,43.62
2018-05-06T18:58:58.552Z,44.00
2018-05-06T19:01:27.377Z,45.16
2018-05-06T19:03:55.766Z,45.11
2018-05-06T19:06:24.136Z,45.70
2018-05-06T19:08:52.934Z,46.12
2018-05-06T19:11:21.247Z,45.77
2018-05-06T19:13:50.649Z,46.46
2018-05-06T19:16:18.982Z,46.72
2018-05-06T19:18:48.471Z,47.08
2018-05-06T19:21:16.782Z,47.44
2018-05-06T19:23:45.219Z,47.69
2018-05-06T19:26:13.643Z,47.75
2018-05-06T19:28:42.041Z,47.20
2018-05-06T19:31:10.351Z,47.22
2018-05-06T19:33:40.119Z,47.44
2018-05-06T19:36:09.227Z,47.85
2018-05-06T19:38:37.965Z,48.05
2018-05-06T19:41:06.293Z,48.10
2018-05-06T19:43:35.399Z,47.86
2018-05-06T19:46:04.530Z,48.15
2018-05-06T19:48:33.741Z,48.04
2018-05-06T19:51:03.022Z,47.98
2018-05-06T19:53:32.162Z,47.90
2018-05-06T19:56:00.522Z,48.27
2018-05-06T19:58:28.848Z,49.03
2018-05-06T20:00:58.080Z,49.13
2018-05-06T20:03:26.487Z,49.15
2018-05-06T20:05:54.826Z,49.27
2018-05-06T20:08:23.173Z,49.62
2018-05-06T20:10:52.371Z,50.25
2018-05-06T20:13:21.489Z,49.81
2018-05-06T20:15:49.950Z,49.92
2018-05-06T20:18:19.918Z,50.23
2018-05-06T20:20:48.304Z,50.43
2018-05-06T20:23:16.676Z,50.94
2018-05-06T20:25:46.140Z,51.13
2018-05-06T20:28:14.647Z,51.20
2018-05-06T20:30:43.069Z,51.19
2018-05-06T20:33:11.554Z,51.04
2018-05-06T20:35:39.922Z,51.17
2018-05-06T20:38:08.314Z,51.65
2018-05-06T20:40:37.827Z,51.88
2018-05-06T20:43:07.322Z,52.92
2018-05-06T20:45:35.652Z,53.13
2018-05-06T20:48:03.968Z,54.10
2018-05-06T20:50:32.724Z,54.13
2018-05-06T20:53:01.041Z,55.48
2018-05-06T20:55:30.162Z,55.63
2018-05-06T20:57:58.644Z,55.69
2018-05-06T21:00:26.998Z,55.93
2018-05-06T21:02:56.102Z,55.18
2018-05-06T21:05:25.250Z,54.68
2018-05-06T21:07:53.591Z,54.44
2018-05-06T21:10:21.941Z,55.19
2018-05-06T21:12:51.068Z,55.04
2018-05-06T21:15:19.423Z,54.88
2018-05-06T21:17:48.569Z,55.14
2018-05-06T21:20:18.492Z,55.57
2018-05-06T21:22:46.851Z,56.59
2018-05-06T21:25:15.208Z,58.15
2018-05-06T21:27:43.644Z,58.47
2018-05-06T21:30:11.978Z,58.12
2018-05-06T21:32:40.308Z,59.32
2018-05-06T21:35:08.674Z,58.15
2018-05-06T21:37:37.020Z,56.97
2018-05-06T21:40:05.368Z,57.49
2018-05-06T21:42:33.730Z,58.70
2018-05-06T21:45:02.860Z,58.77
2018-05-06T21:47:31.974Z,58.58
2018-05-06T21:50:00.346Z,58.44
2018-05-06T21:52:28.694Z,57.92
2018-05-06T21:54:57.062Z,58.65
2018-05-06T21:57:26.162Z,58.63
2018-05-06T21:59:55.304Z,58.21
2018-05-06T22:02:23.633Z,58.88
2018-05-06T22:04:52.730Z,59.34
2018-05-06T22:07:21.909Z,60.03
2018-05-06T22:09:50.234Z,60.80
2018-05-06T22:12:18.614Z,60.83
2018-05-06T22:14:46.964Z,60.22
2018-05-06T22:17:16.099Z,61.47
2018-05-06T22:19:44.467Z,61.69
2018-05-06T22:22:12.779Z,62.12
2018-05-06T22:24:41.335Z,62.52
2018-05-06T22:27:09.705Z,61.51
2018-05-06T22:29:38.046Z,61.60
2018-05-06T22:32:07.143Z,61.16
2018-05-06T22:34:37.029Z,60.73
2018-05-06T22:37:05.369Z,60.41
2018-05-06T22:39:33.701Z,60.43
2018-05-06T22:42:02.828Z,60.38
2018-05-06T22:44:31.152Z,60.78
2018-05-06T22:46:59.485Z,61.03
2018-05-06T22:49:27.836Z,61.35
2018-05-06T22:51:56.936Z,61.20
2018-05-06T22:54:26.074Z,61.06
2018-05-06T22:56:54.416Z,62.30
2018-05-06T22:59:22.773Z,62.95
2018-05-06T23:01:51.908Z,63.11
2018-05-06T23:04:20.215Z,64.72
2018-05-06T23:06:48.592Z,65.49
2018-05-06T23:09:17.028Z,65.92
2018-05-06T23:11:45.351Z,66.45
2018-05-06T23:14:13.721Z,65.68
2018-05-06T23:16:42.084Z,65.00
2018-05-06T23:19:10.440Z,64.88
2018-05-06T23:21:38.855Z,65.31
2018-05-06T23:24:07.211Z,65.59
2018-05-06T23:26:35.626Z,65.23
2018-05-06T23:29:03.925Z,63.51
2018-05-06T23:31:33.025Z,63.13
2018-05-06T23:34:02.149Z,63.20
2018-05-06T23:36:30.494Z,62.72
2018-05-06T23:38:59.629Z,62.74
2018-05-06T23:41:27.964Z,63.08
2018-05-06T23:43:56.341Z,63.44
2018-05-06T23:46:25.446Z,63.05
2018-05-06T23:48:54.595Z,63.28
2018-05-06T23:51:22.951Z,63.69
2018-05-06T23:53:51.283Z,63.98
2018-05-06T23:56:19.664Z,65.10
2018-05-06T23:58:48.751Z,65.24
